createdAt,value
2019-05-12T00:00:59.868Z,95114.89
2019-05-12T00:03:29.390Z,95118.38
2019-05-12T00:05:58.865Z,95114.52
2019-05-12T00:08:28.325Z,95119.74
2019-05-12T00:10:58.369Z,95113.99
2019-05-12T00:13:28.052Z,95121.17
2019-05-12T00:15:58.279Z,95124.01
2019-05-12T00:18:28.458Z,95123.69
2019-05-12T00:20:58.065Z,95117.86
2019-05-12T00:23:30.398Z,95126.01
2019-05-12T00:25:58.976Z,95124.75
2019-05-12T00:28:28.574Z,95130.64
2019-05-12T00:30:58.195Z,95125.23
2019-05-12T00:33:28.168Z,95123.72
2019-05-12T00:35:58.708Z,95124.30
2019-05-12T00:38:28.373Z,95122.76
2019-05-12T00:40:58.444Z,95124.59
2019-05-12T00:43:28.321Z,95133.78
2019-05-12T00:45:58.650Z,95119.30
2019-05-12T00:48:28.492Z,95134.17
2019-05-12T00:50:58.484Z,95127.90
2019-05-12T00:53:39.478Z,95136.36
2019-05-12T00:55:59.262Z,95141.50
2019-05-12T00:58:28.748Z,95144.94
2019-05-12T01:00:59.576Z,95140.38
2019-05-12T01:03:29.189Z,95144.48
2019-05-12T01:05:58.683Z,95153.00
2019-05-12T01:08:29.396Z,95152.30
2019-05-12T01:10:58.886Z,95158.34
2019-05-12T01:13:28.532Z,95167.19
2019-05-12T01:15:58.696Z,95170.09
2019-05-12T01:18:28.363Z,95168.55
2019-05-12T01:20:58.424Z,95172.62
2019-05-12T01:23:28.233Z,95173.73
2019-05-12T01:25:58.573Z,95180.00
2019-05-12T01:28:28.234Z,95182.23
2019-05-12T01:30:59.620Z,95189.93
2019-05-12T01:33:29.100Z,95196.29
2019-05-12T01:35:58.785Z,95195.81
2019-05-12T01:38:28.850Z,95206.72
2019-05-12T01:40:58.592Z,95215.73
2019-05-12T01:43:28.030Z,95216.39
2019-05-12T01:45:58.837Z,95222.92
2019-05-12T01:48:28.914Z,95231.99
2019-05-12T01:50:58.422Z,95230.69
2019-05-12T01:53:28.723Z,95230.02
2019-05-12T01:55:58.541Z,95232.28
2019-05-12T01:58:28.115Z,95233.01
2019-05-12T02:00:58.874Z,95229.86
2019-05-12T02:03:28.589Z,95230.02
2019-05-12T02:06:02.301Z,95240.80
2019-05-12T02:08:33.405Z,95245.96
2019-05-12T02:11:20.194Z,95247.91
2019-05-12T02:13:49.672Z,95249.14
2019-05-12T02:16:19.154Z,95245.58
2019-05-12T02:18:49.168Z,95246.82
2019-05-12T02:21:19.073Z,95248.66
2019-05-12T02:23:48.680Z,95249.78
2019-05-12T02:26:18.915Z,95248.28
2019-05-12T02:28:48.595Z,95258.20
2019-05-12T02:31:39.776Z,95265.66
2019-05-12T02:34:08.950Z,95271.98
2019-05-12T02:36:38.434Z,95285.56
2019-05-12T02:39:08.544Z,95287.44
2019-05-12T02:41:38.102Z,95293.88
2019-05-12T02:44:07.636Z,95293.13
2019-05-12T02:46:37.189Z,95301.23
2019-05-12T02:49:26.004Z,95303.77
2019-05-12T02:51:55.583Z,95305.78
2019-05-12T02:54:44.600Z,95308.52
2019-05-12T02:56:57.827Z,95314.64
2019-05-12T02:59:29.088Z,95316.70
2019-05-12T03:02:00.595Z,95321.08
2019-05-12T03:04:34.942Z,95326.86
2019-05-12T03:07:06.609Z,95331.32
2019-05-12T03:09:35.608Z,95336.34
2019-05-12T03:12:06.083Z,95335.51
2019-05-12T03:14:40.643Z,95337.91
2019-05-12T03:17:07.073Z,95344.11
2019-05-12T03:19:36.551Z,95346.72
2019-05-12T03:22:06.206Z,95355.16
2019-05-12T03:24:35.682Z,95363.23
2019-05-12T03:27:05.166Z,95362.62
2019-05-12T03:29:34.673Z,95364.90
2019-05-12T03:32:08.283Z,95375.84
2019-05-12T03:34:38.131Z,95374.22
2019-05-12T03:37:08.447Z,95385.86
2019-05-12T03:39:38.192Z,95388.47
2019-05-12T03:42:07.675Z,95392.17
2019-05-12T03:44:56.509Z,95396.95
2019-05-12T03:47:25.977Z,95408.16
2019-05-12T03:49:55.462Z,95407.95
2019-05-12T03:52:25.028Z,95415.01
2019-05-12T03:54:55.956Z,95424.89
2019-05-12T03:57:25.779Z,95429.75
2019-05-12T03:59:55.246Z,95435.79
2019-05-12T04:02:25.245Z,95436.05
2019-05-12T04:04:55.555Z,95446.95
2019-05-12T04:07:25.117Z,95448.36
2019-05-12T04:09:55.013Z,95444.40
2019-05-12T04:12:25.614Z,95458.89
2019-05-12T04:14:55.326Z,95460.91
2019-05-12T04:17:24.752Z,95465.25
2019-05-12T04:19:54.992Z,95470.81
2019-05-12T04:22:25.129Z,95470.55
2019-05-12T04:24:55.302Z,95481.53
2019-05-12T04:27:25.374Z,95483.73
2019-05-12T04:29:54.962Z,95487.84
2019-05-12T04:32:25.278Z,95495.33
2019-05-12T04:34:55.254Z,95509.72
2019-05-12T04:37:25.149Z,95515.13
2019-05-12T04:39:55.529Z,95523.70
2019-05-12T04:42:25.333Z,95526.46
2019-05-12T04:44:55.331Z,95531.67
2019-05-12T04:47:25.410Z,95540.67
2019-05-12T04:49:54.931Z,95542.95
2019-05-12T04:52:24.987Z,95552.75
2019-05-12T04:54:55.359Z,95555.13
2019-05-12T04:57:25.590Z,95561.35
2019-05-12T04:59:55.119Z,95566.91
2019-05-12T05:02:25.397Z,95565.65
2019-05-12T05:04:54.961Z,95579.34
2019-05-12T05:07:24.621Z,95575.95
2019-05-12T05:09:54.945Z,95586.47
2019-05-12T05:12:25.149Z,95595.07
2019-05-12T05:14:54.976Z,95601.83
2019-05-12T05:17:24.651Z,95601.47
2019-05-12T05:19:54.163Z,95610.68
2019-05-12T05:22:25.111Z,95614.89
2019-05-12T05:24:54.597Z,95620.17
2019-05-12T05:27:24.750Z,95622.36
2019-05-12T05:29:54.450Z,95633.52
2019-05-12T05:32:23.952Z,95640.36
2019-05-12T05:34:57.717Z,95648.06
2019-05-12T05:37:24.651Z,95651.96
2019-05-12T05:39:54.136Z,95655.98
2019-05-12T05:42:30.704Z,95656.88
2019-05-12T05:44:54.831Z,95657.47
2019-05-12T05:47:27.143Z,95662.73
2019-05-12T05:49:55.515Z,95664.67
2019-05-12T05:52:33.282Z,95663.26
2019-05-12T05:54:56.438Z,95668.84
2019-05-12T05:57:29.749Z,95673.83
2019-05-12T05:59:57.110Z,95685.30
2019-05-12T06:02:31.858Z,95685.30
2019-05-12T06:04:57.810Z,95691.89
2019-05-12T06:07:34.919Z,95688.52
2019-05-12T06:09:58.502Z,95692.86
2019-05-12T06:12:27.995Z,95693.45
2019-05-12T06:14:59.838Z,95691.88
2019-05-12T06:17:29.467Z,95703.91
2019-05-12T06:19:58.961Z,95705.13
2019-05-12T06:22:28.479Z,95704.80
2019-05-12T06:24:59.014Z,95716.14
2019-05-12T06:27:28.528Z,95717.92
2019-05-12T06:30:00.822Z,95716.59
2019-05-12T06:32:29.252Z,95719.76
2019-05-12T06:35:01.542Z,95723.11
2019-05-12T06:37:29.939Z,95729.62
2019-05-12T06:40:00.597Z,95732.03
2019-05-12T06:42:30.171Z,95736.77
2019-05-12T06:44:59.656Z,95738.31
2019-05-12T06:47:29.146Z,95742.55
2019-05-12T06:49:58.651Z,95747.63
2019-05-12T06:52:28.137Z,95752.46
2019-05-12T06:54:57.602Z,95747.61
2019-05-12T06:57:28.899Z,95751.62
2019-05-12T06:59:58.307Z,95758.11
2019-05-12T07:02:30.298Z,95758.11
2019-05-12T07:04:59.658Z,95757.23
2019-05-12T07:07:35.747Z,95762.04
2019-05-12T07:10:07.919Z,95769.36
2019-05-12T07:12:36.559Z,95775.74
2019-05-12T07:15:03.783Z,95777.20
2019-05-12T07:17:45.502Z,95779.59
2019-05-12T07:20:14.746Z,95784.28
2019-05-12T07:22:48.373Z,95783.54
2019-05-12T07:25:15.582Z,95785.90
2019-05-12T07:27:53.657Z,95800.22
2019-05-12T07:30:20.970Z,95800.45
2019-05-12T07:32:51.097Z,95793.95
2019-05-12T07:35:23.916Z,95799.06
2019-05-12T07:37:53.897Z,95800.55
2019-05-12T07:40:25.657Z,95806.50
2019-05-12T07:42:55.675Z,95810.12
2019-05-12T07:45:25.397Z,95811.47
2019-05-12T07:47:59.466Z,95792.08
2019-05-12T07:50:27.340Z,95813.23
2019-05-12T07:52:56.940Z,95816.34
2019-05-12T07:55:26.406Z,95823.19
2019-05-12T07:57:58.689Z,95824.36
2019-05-12T08:00:27.098Z,95826.36
2019-05-12T08:02:56.589Z,95832.28
2019-05-12T08:05:26.066Z,95829.23
2019-05-12T08:08:00.533Z,95836.70
2019-05-12T08:10:26.751Z,95841.53
2019-05-12T08:13:00.644Z,95837.38
2019-05-12T08:15:27.448Z,95845.05
2019-05-12T08:17:59.536Z,95850.33
2019-05-12T08:20:28.151Z,95851.06
2019-05-12T08:22:59.676Z,95849.58
2019-05-12T08:25:29.023Z,95844.77
2019-05-12T08:28:10.159Z,95850.77
2019-05-12T08:30:40.247Z,95853.69
2019-05-12T08:33:09.612Z,95857.72
2019-05-12T08:35:39.434Z,95871.34
2019-05-12T08:38:08.923Z,95875.66
2019-05-12T08:40:39.885Z,95874.09
2019-05-12T08:43:10.725Z,95881.89
2019-05-12T08:45:40.429Z,95884.27
2019-05-12T08:48:15.486Z,95883.77
2019-05-12T08:50:45.315Z,95883.95
2019-05-12T08:53:20.368Z,95893.30
2019-05-12T08:55:43.768Z,95894.38
2019-05-12T08:58:29.340Z,95897.33
2019-05-12T09:00:48.477Z,95909.05
2019-05-12T09:03:20.353Z,95909.73
2019-05-12T09:05:47.311Z,95913.09
2019-05-12T09:08:16.798Z,95914.39
2019-05-12T09:10:46.317Z,95920.44
2019-05-12T09:13:15.811Z,95928.00
2019-05-12T09:15:45.298Z,95931.81
2019-05-12T09:18:14.772Z,95934.30
2019-05-12T09:20:48.864Z,95942.68
2019-05-12T09:23:15.450Z,95948.69
2019-05-12T09:25:48.314Z,95956.53
2019-05-12T09:28:16.132Z,95960.33
2019-05-12T09:30:49.306Z,95961.15
2019-05-12T09:33:21.350Z,95960.22
2019-05-12T09:35:48.064Z,95955.84
2019-05-12T09:38:26.395Z,95957.03
2019-05-12T09:40:52.818Z,95962.14
2019-05-12T09:43:19.978Z,95968.17
2019-05-12T09:45:53.938Z,95971.95
2019-05-12T09:48:20.655Z,95980.36
2019-05-12T09:50:51.509Z,95983.92
2019-05-12T09:53:23.687Z,95977.63
2019-05-12T09:55:53.907Z,95985.92
2019-05-12T09:58:27.635Z,95987.33
2019-05-12T10:00:54.834Z,95990.60
2019-05-12T10:03:43.940Z,95992.39
2019-05-12T10:06:17.988Z,95991.66
2019-05-12T10:08:46.088Z,95997.75
2019-05-12T10:11:19.495Z,96004.78
2019-05-12T10:13:46.784Z,96005.15
2019-05-12T10:16:16.268Z,96004.28
2019-05-12T10:18:51.150Z,95995.98
2019-05-12T10:21:17.556Z,95998.80
2019-05-12T10:23:51.419Z,95997.48
2019-05-12T10:26:18.326Z,96010.42
2019-05-12T10:28:51.831Z,96004.56
2019-05-12T10:31:19.069Z,96006.64
2019-05-12T10:33:49.104Z,96000.57
2019-05-12T10:36:19.756Z,96014.73
2019-05-12T10:38:49.236Z,96014.56
2019-05-12T10:41:18.710Z,96013.70
2019-05-12T10:43:53.147Z,96017.50
2019-05-12T10:46:26.800Z,96024.97
2019-05-12T10:48:50.628Z,96023.53
2019-05-12T10:51:20.142Z,96027.34
2019-05-12T10:53:56.859Z,96026.19
2019-05-12T10:56:20.894Z,96022.92
2019-05-12T10:58:53.001Z,96034.03
2019-05-12T11:01:24.341Z,96036.61
2019-05-12T11:03:53.460Z,96039.55
2019-05-12T11:06:24.395Z,96038.75
2019-05-12T11:08:54.250Z,96047.50
2019-05-12T11:11:24.141Z,96045.48
2019-05-12T11:13:53.993Z,96054.50
2019-05-12T11:16:30.833Z,96048.02
2019-05-12T11:18:54.690Z,96057.47
2019-05-12T11:21:24.193Z,96052.63
2019-05-12T11:23:54.457Z,96051.35
2019-05-12T11:26:24.027Z,96058.55
2019-05-12T11:28:53.504Z,96058.34
2019-05-12T11:31:24.389Z,96061.68
2019-05-12T11:33:54.234Z,96069.93
2019-05-12T11:36:24.300Z,96062.03
2019-05-12T11:38:53.818Z,96062.80
2019-05-12T11:41:28.300Z,96072.52
2019-05-12T11:43:54.518Z,96071.33
2019-05-12T11:46:44.090Z,96075.62
2019-05-12T11:49:14.555Z,96080.26
2019-05-12T11:51:44.035Z,96078.19
2019-05-12T11:54:13.844Z,96080.21
2019-05-12T11:56:48.783Z,96086.78
2019-05-12T11:59:15.049Z,96083.16
2019-05-12T12:01:49.765Z,96089.78
2019-05-12T12:04:16.888Z,96096.87
2019-05-12T12:06:46.382Z,96088.54
2019-05-12T12:09:18.909Z,96089.19
2019-05-12T12:11:47.093Z,96088.31
2019-05-12T12:14:16.584Z,96093.03
2019-05-12T12:16:49.986Z,96102.61
2019-05-12T12:19:17.275Z,96100.88
2019-05-12T12:21:50.068Z,96104.28
2019-05-12T12:24:29.394Z,96100.38
2019-05-12T12:26:49.575Z,96104.52
2019-05-12T12:29:19.064Z,96106.30
2019-05-12T12:31:50.161Z,96110.47
2019-05-12T12:34:23.790Z,96108.42
2019-05-12T12:36:50.970Z,96111.86
2019-05-12T12:39:20.454Z,96114.25
2019-05-12T12:41:58.343Z,96120.34
2019-05-12T12:44:21.177Z,96122.94
2019-05-12T12:46:51.124Z,96114.02
2019-05-12T12:49:23.366Z,96113.54
2019-05-12T12:51:52.914Z,96115.77
2019-05-12T12:54:22.464Z,96114.32
2019-05-12T12:56:53.905Z,96123.13
2019-05-12T12:59:24.090Z,96123.78
2019-05-12T13:01:53.874Z,96119.28
2019-05-12T13:04:24.868Z,96120.94
2019-05-12T13:06:54.488Z,96125.12
2019-05-12T13:09:24.786Z,96123.88
2019-05-12T13:11:54.347Z,96128.23
2019-05-12T13:14:28.719Z,96116.54
2019-05-12T13:16:56.303Z,96124.79
2019-05-12T13:19:25.803Z,96128.13
2019-05-12T13:21:55.299Z,96133.06
2019-05-12T13:24:25.989Z,96135.06
2019-05-12T13:26:55.467Z,96137.23
2019-05-12T13:29:26.327Z,96137.65
2019-05-12T13:31:56.157Z,96139.04
2019-05-12T13:34:28.882Z,96136.61
2019-05-12T13:36:56.969Z,96144.35
2019-05-12T13:39:26.451Z,96139.44
2019-05-12T13:42:00.076Z,96152.03
2019-05-12T13:44:30.325Z,96137.91
2019-05-12T13:46:58.915Z,96137.02
2019-05-12T13:49:30.177Z,96145.00
2019-05-12T13:51:59.745Z,96147.16
2019-05-12T13:54:30.099Z,96149.52
2019-05-12T13:57:03.857Z,96150.64
2019-05-12T13:59:31.271Z,96158.80
2019-05-12T14:02:00.761Z,96156.76
2019-05-12T14:04:30.263Z,96165.70
2019-05-12T14:06:59.867Z,96164.97
2019-05-12T14:09:29.376Z,96164.75
2019-05-12T14:11:58.846Z,96159.78
2019-05-12T14:14:28.317Z,96161.78
2019-05-12T14:16:59.193Z,96160.33
2019-05-12T14:19:30.257Z,96165.94
2019-05-12T14:22:00.644Z,96169.36
2019-05-12T14:24:33.314Z,96172.95
2019-05-12T14:27:03.976Z,96173.39
2019-05-12T14:29:33.405Z,96174.48
2019-05-12T14:32:05.307Z,96174.70
2019-05-12T14:34:34.133Z,96175.09
2019-05-12T14:37:06.909Z,96176.09
2019-05-12T14:39:34.913Z,96186.27
2019-05-12T14:42:04.503Z,96181.38
2019-05-12T14:44:38.081Z,96181.31
2019-05-12T14:47:05.181Z,96177.45
2019-05-12T14:49:35.426Z,96178.33
2019-05-12T14:52:24.261Z,96184.77
2019-05-12T14:55:24.765Z,96109.79
2019-05-12T14:58:09.229Z,96185.39
2019-05-12T15:00:36.410Z,96133.52
2019-05-12T15:03:12.677Z,96190.63
2019-05-12T15:05:41.400Z,96196.10
2019-05-12T15:08:08.416Z,96193.86
2019-05-12T15:10:37.913Z,96199.31
2019-05-12T15:13:07.419Z,96202.98
2019-05-12T15:15:36.890Z,96204.75
2019-05-12T15:18:09.348Z,96208.66
2019-05-12T15:20:41.375Z,96205.00
2019-05-12T15:23:08.873Z,96207.36
2019-05-12T15:25:38.360Z,96209.22
2019-05-12T15:28:07.826Z,96207.59
2019-05-12T15:30:37.315Z,96207.19
2019-05-12T15:33:06.790Z,96215.39
2019-05-12T15:35:36.285Z,96221.13
2019-05-12T15:38:09.351Z,96212.78
2019-05-12T15:40:37.158Z,96209.61
2019-05-12T15:43:09.231Z,96204.77
2019-05-12T15:45:37.848Z,96206.87
2019-05-12T15:48:07.313Z,96210.90
2019-05-12T15:50:36.807Z,96209.45
2019-05-12T15:53:06.294Z,96218.12
2019-05-12T15:55:35.838Z,96227.55
2019-05-12T15:58:24.899Z,96233.05
2019-05-12T16:00:58.075Z,96235.23
2019-05-12T16:03:27.095Z,96235.64
2019-05-12T16:06:01.392Z,96239.69
2019-05-12T16:08:27.765Z,96229.72
2019-05-12T16:10:57.247Z,96229.08
2019-05-12T16:13:26.730Z,96227.25
2019-05-12T16:16:03.223Z,96229.64
2019-05-12T16:18:28.526Z,96234.38
2019-05-12T16:20:58.936Z,96231.80
2019-05-12T16:23:30.235Z,96228.42
2019-05-12T16:26:01.501Z,96234.70
2019-05-12T16:28:53.989Z,96237.09
2019-05-12T16:31:39.548Z,96246.72
2019-05-12T16:34:06.334Z,96247.10
2019-05-12T16:36:35.792Z,96246.47
2019-05-12T16:39:07.958Z,96246.41
2019-05-12T16:41:37.470Z,96244.24
2019-05-12T16:44:15.938Z,96247.05
2019-05-12T16:46:38.188Z,96249.42
2019-05-12T16:49:07.671Z,96253.06
2019-05-12T16:51:37.153Z,96256.28
2019-05-12T16:54:06.650Z,96252.97
2019-05-12T16:56:36.144Z,96256.28
2019-05-12T16:59:15.623Z,96258.77
2019-05-12T17:01:36.833Z,96260.26
2019-05-12T17:04:06.309Z,96266.20
2019-05-12T17:06:38.601Z,96268.31
2019-05-12T17:09:08.445Z,96273.28
2019-05-12T17:11:47.148Z,96275.88
2019-05-12T17:14:09.179Z,96281.78
2019-05-12T17:16:41.734Z,96287.70
2019-05-12T17:19:10.644Z,96288.06
2019-05-12T17:21:40.208Z,96293.54
2019-05-12T17:24:09.697Z,96292.60
2019-05-12T17:26:39.188Z,96299.84
2019-05-12T17:29:09.233Z,96304.87
2019-05-12T17:31:38.714Z,96310.67
2019-05-12T17:34:09.051Z,96310.97
2019-05-12T17:36:39.418Z,96307.20
2019-05-12T17:39:09.362Z,96314.36
2019-05-12T17:41:42.236Z,96318.38
2019-05-12T17:44:10.076Z,96315.28
2019-05-12T17:46:39.801Z,96310.30
2019-05-12T17:49:09.320Z,96316.12
2019-05-12T17:51:38.812Z,96311.87
2019-05-12T17:54:15.707Z,96316.18
2019-05-12T17:56:39.585Z,96329.83
2019-05-12T17:59:09.075Z,96325.63
2019-05-12T18:01:38.628Z,96326.63
2019-05-12T18:04:08.112Z,96332.99
2019-05-12T18:06:37.600Z,96337.62
2019-05-12T18:09:14.831Z,96334.40
2019-05-12T18:11:39.679Z,96347.86
2019-05-12T18:14:09.168Z,96344.82
2019-05-12T18:16:38.642Z,96349.38
2019-05-12T18:19:09.005Z,96356.02
2019-05-12T18:21:39.406Z,96356.52
2019-05-12T18:24:11.193Z,96365.54
2019-05-12T18:26:40.112Z,96362.94
2019-05-12T18:29:09.583Z,96370.97
2019-05-12T18:31:39.090Z,96379.06
2019-05-12T18:34:08.642Z,96386.38
2019-05-12T18:36:39.105Z,96386.22
2019-05-12T18:39:11.693Z,96389.80
2019-05-12T18:41:40.357Z,96402.48
2019-05-12T18:44:31.518Z,96405.75
2019-05-12T18:47:00.700Z,96339.69
2019-05-12T18:49:30.151Z,96427.25
2019-05-12T18:51:59.615Z,96420.95
2019-05-12T18:54:29.183Z,96414.48
2019-05-12T18:57:04.204Z,96413.07
2019-05-12T18:59:30.159Z,96413.02
2019-05-12T19:01:59.632Z,96404.08
2019-05-12T19:04:29.129Z,96400.59
2019-05-12T19:06:58.601Z,96404.88
2019-05-12T19:09:28.081Z,96408.10
2019-05-12T19:11:58.325Z,96404.59
2019-05-12T19:14:35.384Z,96400.59
2019-05-12T19:16:59.022Z,96396.15
2019-05-12T19:19:28.524Z,96396.73
2019-05-12T19:22:05.125Z,96395.19
2019-05-12T19:24:29.216Z,96392.08
2019-05-12T19:26:58.698Z,96399.50
2019-05-12T19:29:29.779Z,96398.25
2019-05-12T19:31:59.403Z,96398.11
2019-05-12T19:34:31.939Z,96399.92
2019-05-12T19:37:00.089Z,96404.80
2019-05-12T19:39:29.558Z,96399.21
2019-05-12T19:41:59.029Z,96399.67
2019-05-12T19:44:30.653Z,96410.96
2019-05-12T19:46:59.723Z,96410.55
2019-05-12T19:49:42.694Z,96416.55
2019-05-12T19:52:00.415Z,96411.42
2019-05-12T19:54:33.794Z,96411.22
2019-05-12T19:57:01.174Z,96414.58
2019-05-12T19:59:30.654Z,96413.09
2019-05-12T20:02:00.238Z,96418.39
2019-05-12T20:04:33.888Z,96429.02
2019-05-12T20:07:00.927Z,96427.43
2019-05-12T20:09:30.522Z,96424.91
2019-05-12T20:12:01.186Z,96429.94
2019-05-12T20:14:31.231Z,96431.66
2019-05-12T20:17:00.697Z,96432.08
2019-05-12T20:19:30.205Z,96434.84
2019-05-12T20:21:59.687Z,96435.95
2019-05-12T20:24:29.196Z,96438.77
2019-05-12T20:26:58.680Z,96440.56
2019-05-12T20:29:33.193Z,96438.89
2019-05-12T20:31:59.378Z,96433.27
2019-05-12T20:34:28.854Z,96440.97
2019-05-12T20:36:59.068Z,96435.36
2019-05-12T20:39:29.557Z,96436.61
2019-05-12T20:42:00.617Z,96437.81
2019-05-12T20:44:30.413Z,96432.50
2019-05-12T20:47:01.506Z,96439.68
2019-05-12T20:49:33.690Z,96438.08
2019-05-12T20:52:04.456Z,96432.08
2019-05-12T20:54:33.782Z,96440.00
2019-05-12T20:57:07.832Z,96443.30
2019-05-12T20:59:34.478Z,96444.16
2019-05-12T21:02:03.953Z,96443.32
2019-05-12T21:04:37.569Z,96446.84
2019-05-12T21:07:04.815Z,96443.84
2019-05-12T21:09:34.916Z,96443.54
2019-05-12T21:12:04.553Z,96448.39
2019-05-12T21:14:34.098Z,96450.23
2019-05-12T21:17:09.451Z,96455.23
2019-05-12T21:19:38.650Z,96450.98
2019-05-12T21:22:06.093Z,96454.00
2019-05-12T21:24:39.365Z,96457.98
2019-05-12T21:27:09.403Z,96461.89
2019-05-12T21:29:38.583Z,96465.70
2019-05-12T21:32:12.272Z,96466.80
2019-05-12T21:34:39.318Z,96467.35
2019-05-12T21:37:08.807Z,96472.73
2019-05-12T21:39:40.649Z,96477.10
2019-05-12T21:42:09.496Z,96470.64
2019-05-12T21:44:41.289Z,96473.24
2019-05-12T21:47:10.926Z,96475.45
2019-05-12T21:49:42.703Z,96474.80
2019-05-12T21:52:13.651Z,96473.82
2019-05-12T21:54:43.913Z,96472.73
2019-05-12T21:57:13.585Z,96476.38
2019-05-12T21:59:43.047Z,96479.69
2019-05-12T22:02:19.391Z,96484.31
2019-05-12T22:04:46.017Z,96482.76
2019-05-12T22:07:15.495Z,96484.31
2019-05-12T22:09:46.910Z,96493.41
2019-05-12T22:12:16.186Z,96488.02
2019-05-12T22:15:28.696Z,96484.47
2019-05-12T22:18:00.201Z,96418.55
2019-05-12T22:20:32.086Z,96492.82
2019-05-12T22:23:09.558Z,96489.47
2019-05-12T22:25:34.524Z,96488.08
2019-05-12T22:28:09.801Z,96490.83
2019-05-12T22:30:35.567Z,96483.16
2019-05-12T22:33:09.116Z,96491.54
2019-05-12T22:35:36.252Z,96493.62
2019-05-12T22:38:15.292Z,96491.72
2019-05-12T22:40:37.006Z,96492.07
2019-05-12T22:43:07.205Z,96485.30
2019-05-12T22:45:44.513Z,96485.36
2019-05-12T22:48:07.972Z,96485.82
2019-05-12T22:50:38.699Z,96487.83
2019-05-12T22:53:08.184Z,96488.81
2019-05-12T22:55:37.674Z,96484.08
2019-05-12T22:58:10.724Z,96486.11
2019-05-12T23:00:38.436Z,96480.13
2019-05-12T23:03:11.707Z,96487.93
2019-05-12T23:05:39.118Z,96488.55
2019-05-12T23:08:08.711Z,96480.41
2019-05-12T23:10:41.548Z,96485.67
2019-05-12T23:13:09.381Z,96487.33
2019-05-12T23:15:44.427Z,96485.80
2019-05-12T23:18:10.311Z,96490.12
2019-05-12T23:20:39.802Z,96492.98
2019-05-12T23:23:14.470Z,96492.14
2019-05-12T23:25:40.491Z,96494.92
2019-05-12T23:28:10.657Z,96497.16
2019-05-12T23:30:43.744Z,96492.37
2019-05-12T23:33:13.915Z,96491.38
2019-05-12T23:35:44.350Z,96492.47
2019-05-12T23:38:18.844Z,96497.03
2019-05-12T23:40:45.109Z,96486.48
2019-05-12T23:43:14.729Z,96490.83
2019-05-12T23:45:44.560Z,96483.19
2019-05-12T23:48:14.456Z,96488.96
2019-05-12T23:50:43.976Z,96488.73
2019-05-12T23:53:14.049Z,96472.87
2019-05-12T23:55:43.936Z,96485.47
2019-05-12T23:58:14.437Z,96479.87
